Time;durP1;ratioP1;P1;durP2;ratioP2;P2;SDS_P1;SDS_P2;PMS_P1;PMS_P2;Temp;Humidity;BMP_temperature;BMP_pressure;BME280_temperature;BME280_humidity;BME280_pressure;Samples;Min_cycle;Max_cycle;Signal;HPM_P1;HPM_P2
2022/04/16 00:01:12;;;;;;;15.57;5.35;;;6.10;76.80;;;;;;4087882;28;20031;-84
2022/04/16 00:03:13;;;;;;;14.82;5.97;;;6.10;76.90;;;;;;4088854;28;20032;-81
2022/04/16 00:05:15;;;;;;;12.30;5.00;;;6.20;77.00;;;;;;4104198;28;20126;-84
2022/04/16 00:07:15;;;;;;;12.45;5.28;;;6.10;77.00;;;;;;4112089;28;20190;-82
2022/04/16 00:09:17;;;;;;;10.45;4.65;;;6.10;77.00;;;;;;4095051;28;20035;-83
2022/04/16 00:11:18;;;;;;;13.15;5.05;;;6.10;77.00;;;;;;4093461;28;20063;-81
2022/04/16 00:13:19;;;;;;;14.10;5.45;;;6.30;77.20;;;;;;4091060;28;20031;-82
2022/04/16 00:15:21;;;;;;;8.30;4.78;;;6.20;77.20;;;;;;4094711;28;20032;-83
2022/04/16 00:17:31;;;;;;;10.43;5.07;;;6.10;77.20;;;;;;4097683;28;20030;-83
2022/04/16 00:19:32;;;;;;;15.20;5.28;;;6.10;77.20;;;;;;4090641;28;20035;-82
2022/04/16 00:21:35;;;;;;;11.18;4.88;;;6.20;77.10;;;;;;4092570;28;20125;-84
2022/04/16 00:23:37;;;;;;;11.13;5.00;;;6.10;77.20;;;;;;4092505;28;20043;-81
2022/04/16 00:25:38;;;;;;;12.48;5.07;;;6.10;77.20;;;;;;4094154;28;20091;-83
2022/04/16 00:27:39;;;;;;;10.82;5.68;;;6.10;77.20;;;;;;4091939;28;20090;-82
2022/04/16 00:29:40;;;;;;;17.15;5.90;;;6.10;77.30;;;;;;4092336;28;20170;-82
2022/04/16 00:31:43;;;;;;;15.02;5.65;;;6.10;77.30;;;;;;4087726;28;20089;-83
2022/04/16 00:33:46;;;;;;;19.13;5.82;;;6.10;77.40;;;;;;4093763;28;20027;-85
2022/04/16 00:35:47;;;;;;;;;;;6.10;77.50;;;;;;4093250;28;20027;-84
2022/04/16 00:37:48;;;;;;;15.90;5.90;;;6.00;77.90;;;;;;4088856;28;19941;-83
2022/04/16 00:39:48;;;;;;;14.07;5.80;;;6.10;77.60;;;;;;4089541;28;21293;-82
2022/04/16 00:41:50;;;;;;;12.73;5.57;;;6.10;77.70;;;;;;4089083;28;20554;-83
2022/04/16 00:43:54;;;;;;;16.42;6.22;;;6.10;77.50;;;;;;4091443;28;20031;-81
2022/04/16 00:45:55;;;;;;;12.05;5.72;;;6.10;77.50;;;;;;4109358;28;21040;-83
2022/04/16 00:47:57;;;;;;;16.40;6.75;;;6.10;77.50;;;;;;4074740;29;20039;-84
2022/04/16 00:49:58;;;;;;;20.35;6.55;;;6.10;77.70;;;;;;4092733;28;20035;-82
2022/04/16 00:52:00;;;;;;;16.33;6.72;;;6.10;77.60;;;;;;4110176;28;20041;-83
2022/04/16 00:54:01;;;;;;;13.13;6.28;;;6.10;77.60;;;;;;4108661;28;20049;-81
2022/04/16 00:56:06;;;;;;;17.65;7.15;;;6.10;77.60;;;;;;4097669;28;20141;-81
2022/04/16 00:58:06;;;;;;;19.50;7.30;;;6.10;77.70;;;;;;4093278;28;20027;-83
2022/04/16 01:00:09;;;;;;;19.13;7.50;;;6.10;77.70;;;;;;4089473;28;20051;-84
2022/04/16 01:02:10;;;;;;;19.38;7.75;;;6.10;77.70;;;;;;4107400;28;20122;-82
2022/04/16 01:04:10;;;;;;;16.52;8.02;;;6.10;77.60;;;;;;4104308;28;20034;-83
2022/04/16 01:06:15;;;;;;;16.75;7.82;;;6.10;77.60;;;;;;4091790;28;20033;-82
2022/04/16 01:08:19;;;;;;;17.80;7.88;;;6.10;77.60;;;;;;4090309;28;20023;-83
2022/04/16 01:10:21;;;;;;;22.98;8.63;;;6.10;77.60;;;;;;4091656;28;20019;-82
2022/04/16 01:12:22;;;;;;;22.60;9.07;;;6.20;77.70;;;;;;4102758;28;20039;-83
2022/04/16 01:14:22;;;;;;;21.10;9.10;;;6.10;77.60;;;;;;4104425;28;20029;-83
2022/04/16 01:16:23;;;;;;;24.30;9.80;;;6.10;77.60;;;;;;4083123;28;20023;-82
2022/04/16 01:18:24;;;;;;;18.75;8.55;;;6.10;77.70;;;;;;4089864;28;20738;-82
2022/04/16 01:20:25;;;;;;;21.33;7.93;;;6.10;77.60;;;;;;4103570;28;20038;-82
2022/04/16 01:22:29;;;;;;;20.70;8.07;;;6.20;77.50;;;;;;4090474;28;20525;-83
2022/04/16 01:24:30;;;;;;;14.20;7.57;;;6.10;77.50;;;;;;4089427;28;20085;-84
2022/04/16 01:26:31;;;;;;;14.25;7.45;;;6.10;77.30;;;;;;4089873;28;20111;-83
2022/04/16 01:28:31;;;;;;;13.43;7.30;;;6.10;77.20;;;;;;4091653;28;20566;-83
2022/04/16 01:30:33;;;;;;;15.18;7.13;;;6.20;77.20;;;;;;4089121;28;20019;-82
2022/04/16 01:32:33;;;;;;;12.55;6.20;;;6.10;77.10;;;;;;4091249;28;20067;-83
2022/04/16 01:34:34;;;;;;;10.02;6.05;;;6.20;77.10;;;;;;4106306;28;20023;-83
2022/04/16 01:36:35;;;;;;;11.73;6.13;;;6.10;76.90;;;;;;4097203;28;20027;-83
2022/04/16 01:38:36;;;;;;;10.32;6.05;;;6.10;76.80;;;;;;4092977;28;20035;-82
2022/04/16 01:40:38;;;;;;;12.65;6.00;;;6.10;76.70;;;;;;4096984;28;20023;-84
2022/04/16 01:42:39;;;;;;;15.90;6.32;;;6.10;76.60;;;;;;4094246;28;20127;-82
2022/04/16 01:44:42;;;;;;;10.02;5.45;;;6.10;76.40;;;;;;4096463;28;20027;-84
2022/04/16 01:46:43;;;;;;;11.98;5.68;;;6.10;76.40;;;;;;4096979;28;20126;-83
2022/04/16 01:48:44;;;;;;;13.50;5.38;;;6.10;76.30;;;;;;4098683;28;20039;-82
2022/04/16 01:50:48;;;;;;;14.93;5.78;;;6.20;76.30;;;;;;4094136;28;20071;-82
2022/04/16 01:52:49;;;;;;;12.07;6.07;;;6.10;76.10;;;;;;4098215;28;20034;-81
2022/04/16 01:54:51;;;;;;;12.95;6.40;;;6.10;76.10;;;;;;4101639;28;20031;-82
2022/04/16 01:56:51;;;;;;;12.88;6.20;;;6.10;76.10;;;;;;4100546;28;20031;-81
2022/04/16 01:58:52;;;;;;;10.63;6.07;;;6.10;76.10;;;;;;4097570;28;20539;-83
2022/04/16 02:00:53;;;;;;;11.70;6.18;;;6.20;76.10;;;;;;4094163;28;20035;-82
2022/04/16 02:02:54;;;;;;;12.60;6.80;;;6.10;76.00;;;;;;4089532;28;20054;-81
2022/04/16 02:04:54;;;;;;;15.00;7.20;;;6.10;75.90;;;;;;4096368;28;20039;-83
2022/04/16 02:06:55;;;;;;;14.32;6.65;;;6.10;75.90;;;;;;4112981;28;20022;-81
2022/04/16 02:08:56;;;;;;;13.02;6.10;;;6.10;75.80;;;;;;4096863;28;20055;-82
2022/04/16 02:10:57;;;;;;;14.45;6.30;;;6.10;75.80;;;;;;4097162;28;20038;-82
2022/04/16 02:12:57;;;;;;;10.27;6.10;;;6.10;75.70;;;;;;4106578;28;20022;-81
2022/04/16 02:14:58;;;;;;;11.63;5.63;;;6.20;75.70;;;;;;4100755;28;20031;-83
2022/04/16 02:16:59;;;;;;;14.10;6.13;;;6.10;75.50;;;;;;4091091;28;20067;-80
2022/04/16 02:19:00;;;;;;;12.35;5.35;;;6.10;75.50;;;;;;4085151;28;20558;-80
2022/04/16 02:21:01;;;;;;;9.80;5.22;;;6.10;75.40;;;;;;4086776;28;20023;-81
2022/04/16 02:23:06;;;;;;;9.52;5.65;;;6.00;75.30;;;;;;4087776;28;20027;-83
2022/04/16 02:25:10;;;;;;;11.68;5.57;;;6.00;75.20;;;;;;4089475;28;20049;-81
2022/04/16 02:27:10;;;;;;;11.50;6.22;;;6.00;75.10;;;;;;4089737;28;20059;-81
2022/04/16 02:29:13;;;;;;;13.40;6.20;;;6.00;75.10;;;;;;4091887;28;20051;-82
2022/04/16 02:31:15;;;;;;;9.23;5.32;;;6.00;75.00;;;;;;4103153;28;20049;-82
2022/04/16 02:33:15;;;;;;;12.90;5.88;;;6.00;74.80;;;;;;4090365;28;20039;-82
2022/04/16 02:35:17;;;;;;;9.13;5.15;;;5.90;74.60;;;;;;4105174;28;20534;-82
2022/04/16 02:37:18;;;;;;;10.40;4.93;;;6.00;74.50;;;;;;4092890;28;20035;-83
2022/04/16 02:39:18;;;;;;;11.23;5.40;;;5.90;74.20;;;;;;4086661;28;24059;-80
2022/04/16 02:41:19;;;;;;;11.88;5.80;;;5.80;74.90;;;;;;4089112;28;20122;-81
2022/04/16 02:43:20;;;;;;;13.18;6.03;;;5.80;74.00;;;;;;4088826;28;20038;-82
2022/04/16 02:47:40;;;;;;;10.35;5.55;;;5.70;73.60;;;;;;4101806;28;20034;-82
2022/04/16 02:49:41;;;;;;;9.75;5.30;;;5.70;73.50;;;;;;4083110;28;20031;-81
2022/04/16 02:51:43;;;;;;;12.88;5.32;;;5.70;73.50;;;;;;4091711;28;20032;-81
2022/04/16 02:53:44;;;;;;;11.63;5.70;;;5.60;73.40;;;;;;4098721;28;20031;-84
2022/04/16 02:55:46;;;;;;;11.80;6.15;;;5.50;73.30;;;;;;4077350;29;20629;-82
2022/04/16 02:57:49;;;;;;;14.25;5.68;;;5.50;73.20;;;;;;4093313;28;20034;-82
2022/04/16 02:59:52;;;;;;;10.85;5.88;;;5.40;73.00;;;;;;4094071;28;20090;-83
2022/04/16 03:01:53;;;;;;;12.38;5.03;;;5.40;72.90;;;;;;4075565;29;20046;-81
2022/04/16 03:03:54;;;;;;;9.15;5.50;;;5.30;72.90;;;;;;4089397;28;20103;-84
2022/04/16 03:05:55;;;;;;;9.70;5.20;;;5.30;72.90;;;;;;4094527;28;20027;-81
2022/04/16 03:07:57;;;;;;;12.35;5.93;;;5.30;72.80;;;;;;4106598;28;20035;-82
2022/04/16 03:09:57;;;;;;;10.93;4.72;;;5.20;72.80;;;;;;4090883;28;20038;-83
2022/04/16 03:11:58;;;;;;;8.20;5.25;;;5.20;72.90;;;;;;4096002;28;20027;-81
2022/04/16 03:17:31;;;;;;;11.45;5.47;;;5.10;72.90;;;;;;4078242;29;20074;-81
2022/04/16 03:18:39;;;;;;;10.85;5.07;;;5.00;73.00;;;;;;4089493;28;20071;-83
2022/04/16 03:20:42;;;;;;;13.02;5.07;;;5.00;72.90;;;;;;4104136;28;20031;-87
2022/04/16 03:22:43;;;;;;;10.57;5.07;;;4.90;72.80;;;;;;4093304;28;20087;-85
2022/04/16 03:24:43;;;;;;;9.57;5.35;;;4.90;72.70;;;;;;4093875;28;20016;-85
2022/04/16 03:26:44;;;;;;;11.88;5.35;;;4.90;72.80;;;;;;4108054;28;20034;-85
2022/04/16 03:28:45;;;;;;;11.45;5.25;;;4.80;72.80;;;;;;4092407;28;20038;-85
2022/04/16 03:30:45;;;;;;;8.35;4.72;;;4.90;72.80;;;;;;4107371;28;20043;-85
2022/04/16 03:32:49;;;;;;;11.18;5.28;;;4.80;72.70;;;;;;4095525;28;20023;-85
2022/04/16 03:34:50;;;;;;;10.40;5.10;;;4.80;72.60;;;;;;4110381;28;20209;-85
2022/04/16 03:36:50;;;;;;;9.50;4.93;;;4.70;72.50;;;;;;4092424;28;20146;-86
2022/04/16 03:38:51;;;;;;;11.68;5.35;;;4.70;72.60;;;;;;4106965;28;20396;-86
2022/04/16 03:40:52;;;;;;;10.20;5.15;;;4.60;72.60;;;;;;4096293;28;20027;-85
2022/04/16 03:43:00;;;;;;;7.60;4.95;;;4.60;72.60;;;;;;4115466;28;20042;-84
2022/04/16 03:45:01;;;;;;;12.05;6.05;;;4.60;72.50;;;;;;4108061;28;20893;-85
2022/04/16 03:47:02;;;;;;;13.90;5.55;;;4.50;73.00;;;;;;4107116;28;20157;-84
2022/04/16 03:49:03;;;;;;;15.73;6.07;;;4.40;72.20;;;;;;4097837;28;20119;-85
2022/04/16 03:51:03;;;;;;;11.00;5.28;;;4.50;72.30;;;;;;4097253;28;20050;-85
2022/04/16 03:53:04;;;;;;;17.60;6.00;;;4.40;72.10;;;;;;4112237;28;20050;-85
2022/04/16 03:59:59;;;;;;;16.42;5.25;;;4.30;72.30;;;;;;4097294;28;20031;-85
2022/04/16 04:02:00;;;;;;;9.98;5.70;;;4.20;72.40;;;;;;4096345;28;20051;-86
2022/04/16 04:04:01;;;;;;;11.73;5.90;;;4.20;72.50;;;;;;4109561;28;20035;-84
2022/04/16 04:06:02;;;;;;;11.38;6.07;;;4.20;72.50;;;;;;4098547;28;20456;-84
2022/04/16 04:08:06;;;;;;;9.27;5.68;;;4.10;72.50;;;;;;4096507;28;20043;-85
2022/04/16 04:10:07;;;;;;;11.38;6.10;;;4.10;72.50;;;;;;4110185;28;20050;-84
2022/04/16 04:12:12;;;;;;;12.35;5.95;;;4.00;72.60;;;;;;4091357;28;20066;-85
2022/04/16 04:14:12;;;;;;;11.23;5.50;;;4.10;72.70;;;;;;4090598;28;20093;-84
2022/04/16 04:16:13;;;;;;;12.40;5.65;;;4.00;72.60;;;;;;4106077;28;20043;-83
2022/04/16 04:18:14;;;;;;;10.18;5.28;;;3.90;72.60;;;;;;4088313;28;20129;-85
2022/04/16 04:20:15;;;;;;;11.10;5.03;;;4.00;72.70;;;;;;4090166;28;20118;-85
2022/04/16 04:22:16;;;;;;;8.07;4.85;;;3.90;72.70;;;;;;4095526;28;20162;-84
2022/04/16 04:24:17;;;;;;;8.93;4.75;;;3.90;72.70;;;;;;4096225;28;20079;-84
2022/04/16 04:26:17;;;;;;;14.88;5.50;;;3.90;72.60;;;;;;4097491;28;20046;-84
2022/04/16 04:28:18;;;;;;;12.38;5.85;;;3.80;72.60;;;;;;4095113;28;20042;-84
2022/04/16 04:30:19;;;;;;;10.55;5.80;;;3.80;72.60;;;;;;4094206;28;20042;-85
2022/04/16 04:32:20;;;;;;;10.85;6.00;;;3.80;72.60;;;;;;4110086;28;20027;-84
2022/04/16 04:34:21;;;;;;;12.23;5.63;;;3.70;72.60;;;;;;4093332;28;20027;-83
2022/04/16 04:36:21;;;;;;;11.73;6.47;;;3.70;72.60;;;;;;4094723;28;20035;-83
2022/04/16 04:38:22;;;;;;;13.95;6.15;;;3.70;72.80;;;;;;4090211;28;20444;-85
2022/04/16 04:40:22;;;;;;;13.43;5.60;;;3.70;72.90;;;;;;4103939;28;20046;-84
2022/04/16 04:42:34;;;;;;;10.57;5.82;;;3.70;73.00;;;;;;4091940;28;20035;-83
2022/04/16 04:44:34;;;;;;;11.55;5.05;;;3.70;73.30;;;;;;4094465;28;20164;-84
2022/04/16 04:46:35;;;;;;;12.73;5.95;;;3.60;73.40;;;;;;4109145;28;20031;-83
2022/04/16 04:48:36;;;;;;;11.07;5.70;;;3.60;73.70;;;;;;4095247;28;20086;-83
2022/04/16 04:50:36;;;;;;;11.25;5.70;;;3.60;73.90;;;;;;4096757;28;20027;-84
2022/04/16 04:52:38;;;;;;;10.18;5.25;;;3.60;74.10;;;;;;4095980;28;20422;-84
2022/04/16 04:54:39;;;;;;;12.20;6.55;;;3.60;74.30;;;;;;4110618;28;20550;-85
2022/04/16 04:56:40;;;;;;;12.90;6.00;;;3.60;74.40;;;;;;4096891;28;20042;-84
2022/04/16 04:58:40;;;;;;;11.40;6.65;;;3.60;74.50;;;;;;4100024;28;20050;-83
2022/04/16 05:00:41;;;;;;;12.70;6.07;;;3.70;74.70;;;;;;4090385;28;20065;-84
2022/04/16 05:02:47;;;;;;;15.63;7.03;;;3.60;74.80;;;;;;4092687;28;20137;-84
2022/04/16 05:04:47;;;;;;;13.10;7.05;;;3.70;75.10;;;;;;4108597;28;20039;-84
2022/04/16 05:06:48;;;;;;;13.18;7.03;;;3.70;75.10;;;;;;4091273;28;20035;-83
2022/04/16 05:08:49;;;;;;;16.52;7.90;;;3.70;75.40;;;;;;4107247;28;20129;-84
2022/04/16 05:10:50;;;;;;;10.27;6.30;;;3.70;75.50;;;;;;4108653;28;20496;-86
2022/04/16 05:12:55;;;;;;;12.55;6.75;;;3.80;75.90;;;;;;4108373;28;20105;-84
2022/04/16 05:14:56;;;;;;;14.48;7.18;;;3.80;76.30;;;;;;4095044;28;20155;-85
2022/04/16 05:16:56;;;;;;;16.75;7.70;;;4.00;76.70;;;;;;4104256;28;20090;-84
2022/04/16 05:18:57;;;;;;;12.40;7.20;;;3.90;77.10;;;;;;4093177;28;20182;-85
2022/04/16 05:20:58;;;;;;;15.38;7.45;;;4.00;77.70;;;;;;4090960;28;20362;-85
2022/04/16 05:22:58;;;;;;;15.43;8.00;;;4.10;78.40;;;;;;4094826;28;20031;-86
2022/04/16 05:24:59;;;;;;;12.80;8.02;;;4.10;78.80;;;;;;4095757;28;20558;-84
2022/04/16 05:27:00;;;;;;;21.05;8.18;;;4.20;79.30;;;;;;4094698;28;20031;-85
2022/04/16 05:29:01;;;;;;;13.80;8.13;;;4.30;79.60;;;;;;4108872;28;20055;-84
2022/04/16 05:31:03;;;;;;;17.95;7.70;;;4.40;80.00;;;;;;4089514;28;20027;-85
2022/04/16 05:33:16;;;;;;;15.75;7.63;;;4.50;80.20;;;;;;4107173;28;20027;-84
2022/04/16 05:35:17;;;;;;;18.08;8.23;;;4.60;80.40;;;;;;4097074;28;20245;-84
2022/04/16 05:37:17;;;;;;;14.65;7.88;;;4.80;80.60;;;;;;4094367;28;20078;-85
2022/04/16 05:39:18;;;;;;;15.05;7.97;;;4.90;80.50;;;;;;4091419;28;20094;-85
2022/04/16 05:41:19;;;;;;;17.10;8.45;;;4.90;80.40;;;;;;4091599;28;20754;-85
2022/04/16 05:43:19;;;;;;;16.77;8.45;;;5.00;81.10;;;;;;4098645;28;20126;-86
2022/04/16 05:45:20;;;;;;;13.57;8.10;;;5.10;80.30;;;;;;4093884;28;20031;-84
2022/04/16 05:47:21;;;;;;;15.00;8.05;;;5.30;80.40;;;;;;4093727;28;20106;-85
2022/04/16 05:49:21;;;;;;;20.40;8.25;;;5.30;80.30;;;;;;4105662;28;20055;-86
2022/04/16 05:51:24;;;;;;;13.00;7.82;;;5.40;80.40;;;;;;4089671;28;22020;-86
2022/04/16 05:53:25;;;;;;;13.40;7.50;;;5.50;80.50;;;;;;4107940;28;20111;-85
2022/04/16 05:55:26;;;;;;;15.07;7.90;;;5.60;80.40;;;;;;4090523;28;20046;-85
2022/04/16 05:57:27;;;;;;;18.65;7.03;;;5.70;79.80;;;;;;4106803;28;20031;-86
2022/04/16 05:59:28;;;;;;;11.50;6.28;;;5.90;78.90;;;;;;4091745;28;20023;-85
2022/04/16 06:01:29;;;;;;;20.58;6.40;;;6.00;78.70;;;;;;4091706;28;20027;-86
2022/04/16 06:03:30;;;;;;;10.50;5.97;;;6.00;78.00;;;;;;4089008;28;20491;-84
2022/04/16 06:05:31;;;;;;;12.50;6.03;;;6.10;77.00;;;;;;4105834;28;20061;-85
2022/04/16 06:07:32;;;;;;;19.80;6.50;;;6.10;75.90;;;;;;4104659;28;20031;-84
2022/04/16 06:09:33;;;;;;;13.38;6.18;;;6.20;76.50;;;;;;4092803;28;20035;-86
2022/04/16 06:11:33;;;;;;;19.58;7.00;;;6.30;76.30;;;;;;4087694;28;20069;-85
2022/04/16 06:13:34;;;;;;;15.00;7.40;;;6.30;76.20;;;;;;4106230;28;20483;-85
2022/04/16 06:15:35;;;;;;;14.77;7.05;;;6.30;75.90;;;;;;4089498;28;20050;-83
2022/04/16 06:17:36;;;;;;;15.15;7.00;;;6.40;75.70;;;;;;4096283;28;20055;-85
2022/04/16 06:19:36;;;;;;;12.30;6.15;;;6.40;75.90;;;;;;4085234;28;21335;-84
2022/04/16 06:21:37;;;;;;;14.40;6.22;;;6.60;76.10;;;;;;4088333;28;20051;-84
2022/04/16 06:23:38;;;;;;;13.00;6.70;;;6.50;75.80;;;;;;4087464;28;20063;-86
2022/04/16 06:25:38;;;;;;;13.95;6.90;;;6.60;75.40;;;;;;4084995;28;20031;-85
2022/04/16 06:27:39;;;;;;;12.15;5.93;;;6.60;75.20;;;;;;4089096;28;20027;-85
2022/04/16 06:29:40;;;;;;;11.88;5.63;;;6.70;74.40;;;;;;4089207;28;20639;-85
2022/04/16 06:31:41;;;;;;;12.38;6.60;;;6.70;74.40;;;;;;4088865;28;20080;-87
2022/04/16 06:33:42;;;;;;;14.20;7.05;;;6.70;73.90;;;;;;4076211;29;20034;-85
2022/04/16 06:35:42;;;;;;;13.43;7.15;;;6.80;74.00;;;;;;4081707;28;20140;-85
2022/04/16 06:37:43;;;;;;;13.00;6.60;;;6.80;74.20;;;;;;4089381;28;20513;-86
2022/04/16 06:39:43;;;;;;;13.32;7.28;;;6.80;74.10;;;;;;4089292;28;20035;-88
2022/04/16 06:41:44;;;;;;;15.93;7.30;;;6.90;74.20;;;;;;4106027;28;20031;-87
2022/04/16 06:43:45;;;;;;;14.68;7.53;;;6.90;74.00;;;;;;4091104;28;20027;-86
2022/04/16 06:45:45;;;;;;;16.90;7.35;;;7.00;73.90;;;;;;4097995;28;20042;-86
2022/04/16 06:47:46;;;;;;;12.23;6.55;;;7.10;73.90;;;;;;4092619;28;20027;-87
2022/04/16 06:49:47;;;;;;;14.02;7.10;;;7.20;73.80;;;;;;4089191;28;20033;-85
2022/04/16 06:51:47;;;;;;;14.63;7.50;;;7.00;73.70;;;;;;4086041;28;20034;-85
2022/04/16 06:53:48;;;;;;;13.23;7.30;;;7.20;74.00;;;;;;4094400;28;20031;-87
2022/04/16 06:55:48;;;;;;;15.93;7.75;;;7.10;74.10;;;;;;4089837;28;20042;-85
2022/04/16 06:57:49;;;;;;;14.75;6.80;;;7.20;74.10;;;;;;4091677;28;20058;-85
2022/04/16 06:59:50;;;;;;;12.98;7.40;;;7.20;73.70;;;;;;4094418;28;20031;-87
2022/04/16 07:01:50;;;;;;;13.07;7.20;;;7.20;73.60;;;;;;4091211;28;20031;-86
2022/04/16 07:03:53;;;;;;;11.85;6.85;;;7.20;73.40;;;;;;4090251;28;20031;-87
2022/04/16 07:05:53;;;;;;;14.85;7.07;;;7.20;73.10;;;;;;4075249;28;20092;-85
2022/04/16 07:07:54;;;;;;;16.67;7.43;;;7.30;73.40;;;;;;4107222;28;20031;-85
2022/04/16 07:09:55;;;;;;;16.08;8.65;;;7.30;73.80;;;;;;4093298;28;20403;-86
2022/04/16 07:11:55;;;;;;;12.23;6.88;;;7.30;73.60;;;;;;4109904;28;20037;-86
2022/04/16 07:13:56;;;;;;;15.88;7.53;;;7.40;73.70;;;;;;4110357;28;20027;-86
2022/04/16 07:15:57;;;;;;;13.05;7.57;;;7.40;73.80;;;;;;4095014;28;20090;-88
2022/04/16 07:17:57;;;;;;;10.73;6.80;;;7.50;73.10;;;;;;4091599;28;20031;-86
2022/04/16 07:19:58;;;;;;;12.63;6.88;;;7.50;73.00;;;;;;4111260;28;20027;-85
2022/04/16 07:21:59;;;;;;;11.30;6.70;;;7.50;73.10;;;;;;4105917;28;20031;-85
2022/04/16 07:24:00;;;;;;;14.85;7.35;;;7.60;72.00;;;;;;4097152;28;20605;-86
2022/04/16 07:26:00;;;;;;;16.13;6.20;;;7.60;72.30;;;;;;4094476;28;20031;-85
2022/04/16 07:28:01;;;;;;;12.70;6.47;;;7.70;71.90;;;;;;4096396;28;20039;-85
2022/04/16 07:30:02;;;;;;;14.75;6.68;;;7.70;71.30;;;;;;4084746;28;21410;-86
2022/04/16 07:32:03;;;;;;;11.43;6.28;;;7.70;70.40;;;;;;4110092;28;20067;-84
2022/04/16 07:34:04;;;;;;;14.70;6.88;;;7.80;70.70;;;;;;4102811;28;20134;-86
2022/04/16 07:36:04;;;;;;;14.57;6.90;;;7.80;71.10;;;;;;4111128;28;20034;-87
2022/04/16 07:38:06;;;;;;;10.95;6.00;;;7.90;70.40;;;;;;4099323;28;20046;-86
2022/04/16 07:40:07;;;;;;;11.85;6.25;;;7.90;70.00;;;;;;4104611;28;20466;-87
2022/04/16 07:42:08;;;;;;;11.82;6.57;;;8.00;70.30;;;;;;4090016;28;20169;-86
2022/04/16 07:44:09;;;;;;;10.80;6.28;;;8.10;69.80;;;;;;4096887;28;20918;-87
2022/04/16 07:46:09;;;;;;;11.13;6.40;;;8.10;69.50;;;;;;4088898;28;20032;-86
2022/04/16 07:48:10;;;;;;;15.30;6.88;;;8.20;69.40;;;;;;4107281;28;20035;-85
2022/04/16 07:50:11;;;;;;;14.65;6.28;;;8.30;67.80;;;;;;4082957;28;20487;-86
2022/04/16 07:52:11;;;;;;;9.40;6.00;;;8.20;68.00;;;;;;4093048;28;20023;-86
2022/04/16 07:54:12;;;;;;;13.38;5.90;;;8.20;67.50;;;;;;4090575;28;20047;-85
2022/04/16 07:56:13;;;;;;;9.05;5.28;;;8.30;67.20;;;;;;4092418;28;20106;-85
2022/04/16 07:58:13;;;;;;;9.07;4.97;;;8.30;67.30;;;;;;4094421;28;20038;-87
2022/04/16 08:00:14;;;;;;;9.23;5.05;;;8.30;66.40;;;;;;4083195;28;20035;-85
2022/04/16 08:02:15;;;;;;;11.07;5.95;;;8.30;65.80;;;;;;4089981;28;20531;-85
2022/04/16 08:04:16;;;;;;;9.35;5.40;;;8.40;65.70;;;;;;4091087;28;20046;-87
2022/04/16 08:06:17;;;;;;;14.07;6.10;;;8.40;66.30;;;;;;4103556;28;20097;-86
2022/04/16 08:08:18;;;;;;;12.98;4.88;;;8.50;66.00;;;;;;4088048;28;20404;-86
2022/04/16 08:10:18;;;;;;;9.45;5.38;;;8.50;65.70;;;;;;4102792;28;20039;-86
2022/04/16 08:12:19;;;;;;;11.32;5.57;;;8.60;65.70;;;;;;4084149;28;20106;-87
2022/04/16 08:14:20;;;;;;;12.93;5.15;;;8.60;64.60;;;;;;4087895;28;20736;-86
2022/04/16 08:16:21;;;;;;;11.00;5.35;;;8.60;64.60;;;;;;4088984;28;20590;-86
2022/04/16 08:18:22;;;;;;;10.02;5.13;;;8.60;65.00;;;;;;4089260;28;20071;-86
2022/04/16 08:20:23;;;;;;;7.22;4.28;;;8.60;64.80;;;;;;4086599;28;20027;-87
2022/04/16 08:22:23;;;;;;;9.25;5.05;;;8.80;65.30;;;;;;4088954;28;20031;-86
2022/04/16 08:24:39;;;;;;;7.25;4.30;;;8.70;64.10;;;;;;4086406;28;20070;-87
2022/04/16 08:26:40;;;;;;;8.25;4.18;;;8.80;64.10;;;;;;4089081;28;20400;-89
2022/04/16 08:28:41;;;;;;;9.25;4.68;;;8.90;63.50;;;;;;4090085;28;20511;-86
2022/04/16 08:30:42;;;;;;;8.65;4.93;;;8.90;63.10;;;;;;4105425;28;20023;-88
2022/04/16 08:32:44;;;;;;;10.65;4.82;;;8.90;62.70;;;;;;4103833;28;20051;-88
2022/04/16 08:34:44;;;;;;;6.45;4.15;;;8.90;63.10;;;;;;4078150;29;20027;-86
2022/04/16 08:36:45;;;;;;;6.82;3.75;;;8.90;61.70;;;;;;4092400;28;20034;-85
2022/04/16 08:38:46;;;;;;;6.78;3.50;;;8.90;61.60;;;;;;4091414;28;20027;-88
2022/04/16 08:40:47;;;;;;;10.13;4.18;;;9.00;61.80;;;;;;4087610;28;20229;-86
2022/04/16 08:42:49;;;;;;;9.60;3.13;;;9.00;61.30;;;;;;4089370;28;20038;-87
2022/04/16 08:44:50;;;;;;;4.95;3.03;;;9.20;61.40;;;;;;4104078;28;20039;-86
2022/04/16 08:46:52;;;;;;;6.47;3.05;;;9.10;58.90;;;;;;4088067;28;20035;-87
2022/04/16 08:48:54;;;;;;;3.60;2.30;;;9.10;59.60;;;;;;4092187;28;20479;-88
2022/04/16 08:50:57;;;;;;;5.60;2.60;;;9.20;58.50;;;;;;4090667;28;20496;-86
2022/04/16 08:52:59;;;;;;;4.93;2.30;;;9.20;58.60;;;;;;4093743;28;20094;-85
2022/04/16 08:55:02;;;;;;;3.70;1.77;;;9.30;58.40;;;;;;4088457;28;20031;-87
2022/04/16 08:57:03;;;;;;;4.40;2.00;;;9.30;58.30;;;;;;4110255;28;20030;-87
2022/04/16 08:59:03;;;;;;;4.13;1.30;;;9.30;58.20;;;;;;4111159;28;20600;-86
2022/04/16 09:01:05;;;;;;;1.73;0.88;;;9.40;56.50;;;;;;4105685;28;20136;-87
2022/04/16 09:03:06;;;;;;;1.60;0.98;;;9.40;53.80;;;;;;4089613;28;20043;-87
2022/04/16 09:05:10;;;;;;;2.33;0.80;;;9.40;51.30;;;;;;4088857;28;20046;-86
2022/04/16 09:07:11;;;;;;;2.78;1.30;;;9.40;49.80;;;;;;4103578;28;20046;-88
2022/04/16 09:09:12;;;;;;;4.20;1.70;;;9.50;51.50;;;;;;4090945;28;20109;-87
2022/04/16 09:11:13;;;;;;;3.13;1.30;;;9.50;52.10;;;;;;4085970;28;20377;-87
2022/04/16 09:13:16;;;;;;;2.85;1.20;;;9.50;52.20;;;;;;4085511;28;20270;-88
2022/04/16 09:15:17;;;;;;;1.65;1.17;;;9.60;50.20;;;;;;4080248;28;20033;-83
2022/04/16 09:17:18;;;;;;;2.60;1.45;;;9.60;49.50;;;;;;4089014;28;20031;-82
2022/04/16 09:19:21;;;;;;;5.38;1.27;;;9.60;50.80;;;;;;4090816;28;20027;-83
2022/04/16 09:21:26;;;;;;;3.27;1.53;;;9.60;48.70;;;;;;4092472;28;20027;-83
2022/04/16 09:23:27;;;;;;;4.07;1.30;;;9.70;50.00;;;;;;4099149;28;20283;-83
2022/04/16 09:25:31;;;;;;;6.85;1.70;;;9.60;49.00;;;;;;4117191;28;20034;-82
2022/04/16 09:27:43;;;;;;;1.88;1.00;;;9.70;50.30;;;;;;4102026;28;20050;-82
2022/04/16 09:29:44;;;;;;;1.23;0.70;;;9.70;50.20;;;;;;4118584;28;20030;-81
2022/04/16 09:31:49;;;;;;;2.35;0.90;;;9.70;48.10;;;;;;4098993;28;20093;-81
2022/04/16 09:33:50;;;;;;;2.33;1.23;;;9.90;50.00;;;;;;4106160;28;20132;-83
2022/04/16 09:35:57;;;;;;;2.38;1.00;;;9.90;48.80;;;;;;4092993;28;20497;-82
2022/04/16 09:38:00;;;;;;;3.47;0.80;;;10.10;47.00;;;;;;4107781;28;20035;-83
2022/04/16 09:40:13;;;;;;;2.27;0.50;;;10.10;48.00;;;;;;4106681;28;20066;-83
2022/04/16 09:42:27;;;;;;;0.90;0.75;;;10.10;47.00;;;;;;4091086;28;20063;-83
2022/04/16 09:44:28;;;;;;;3.15;0.88;;;10.10;45.70;;;;;;4106603;28;20031;-82
2022/04/16 09:46:30;;;;;;;2.22;0.80;;;10.30;45.90;;;;;;4092150;28;20035;-83
2022/04/16 09:48:31;;;;;;;1.63;0.80;;;10.20;43.70;;;;;;4090854;28;20043;-83
2022/04/16 09:50:32;;;;;;;1.75;0.70;;;10.20;44.50;;;;;;4089368;28;20046;-82
2022/04/16 09:52:34;;;;;;;0.98;0.50;;;10.20;45.00;;;;;;4105282;28;20533;-83
2022/04/16 09:54:36;;;;;;;0.82;0.50;;;10.20;42.30;;;;;;4088939;28;20034;-84
2022/04/16 09:56:38;;;;;;;0.85;0.40;;;10.10;44.60;;;;;;4089732;28;20070;-83
2022/04/16 09:58:44;;;;;;;1.15;0.50;;;10.20;44.60;;;;;;4089133;28;20070;-83
2022/04/16 10:00:47;;;;;;;2.13;0.50;;;10.20;44.50;;;;;;4082423;28;20050;-83
2022/04/16 10:02:47;;;;;;;0.88;0.40;;;10.20;45.20;;;;;;4089671;28;20503;-83
2022/04/16 10:04:49;;;;;;;0.93;0.40;;;10.20;41.40;;;;;;4090395;28;20033;-83
2022/04/16 10:06:51;;;;;;;1.27;0.60;;;10.20;40.50;;;;;;4089411;28;20027;-83
2022/04/16 10:08:52;;;;;;;2.22;0.40;;;10.10;41.30;;;;;;4104553;28;20129;-84
2022/04/16 10:10:55;;;;;;;1.13;0.52;;;10.10;41.90;;;;;;4090039;28;20114;-82
2022/04/16 10:13:05;;;;;;;0.80;0.47;;;10.20;40.50;;;;;;4089678;28;20031;-83
2022/04/16 10:15:17;;;;;;;1.40;0.55;;;10.00;41.40;;;;;;4082521;28;20036;-83
2022/04/16 10:17:25;;;;;;;1.80;0.60;;;10.10;42.00;;;;;;4088103;28;20062;-84
2022/04/16 10:19:36;;;;;;;1.58;0.50;;;10.10;41.60;;;;;;4103895;28;20053;-82
2022/04/16 10:21:36;;;;;;;0.82;0.35;;;10.10;42.00;;;;;;4104192;28;20022;-84
2022/04/16 10:23:38;;;;;;;1.75;1.00;;;10.00;39.90;;;;;;4092009;28;20050;-83
2022/04/16 10:25:44;;;;;;;1.27;0.73;;;10.00;41.20;;;;;;4092364;28;20074;-81
2022/04/16 10:27:45;;;;;;;4.43;1.00;;;9.90;42.70;;;;;;4090181;28;20515;-82
2022/04/16 10:29:47;;;;;;;3.20;1.00;;;10.10;44.30;;;;;;4092176;28;20034;-84
2022/04/16 10:31:49;;;;;;;0.50;0.40;;;10.00;43.90;;;;;;4088761;28;20514;-83
2022/04/16 10:33:58;;;;;;;2.13;0.70;;;10.00;44.00;;;;;;4090494;28;20027;-82
2022/04/16 10:36:01;;;;;;;1.33;0.90;;;10.10;43.20;;;;;;4088869;28;20023;-83
2022/04/16 10:38:02;;;;;;;1.55;1.00;;;10.10;44.60;;;;;;4091086;28;20038;-84
2022/04/16 10:40:13;;;;;;;1.83;0.90;;;10.10;44.70;;;;;;4105711;28;20499;-83
2022/04/16 10:42:13;;;;;;;1.77;0.80;;;10.10;43.60;;;;;;4105053;28;20046;-84
2022/04/16 10:44:14;;;;;;;3.05;0.45;;;10.20;42.50;;;;;;4089037;28;20116;-83